createdAt,value
2018-02-03T00:00:23.097Z,14.90
2018-02-03T00:00:56.962Z,16.00
2018-02-03T00:01:31.155Z,18.77
2018-02-03T00:02:05.080Z,17.65
2018-02-03T00:02:39.357Z,15.10
2018-02-03T00:03:13.338Z,14.82
2018-02-03T00:03:48.111Z,17.00
2018-02-03T00:04:22.002Z,18.30
2018-02-03T00:04:55.892Z,16.70
2018-02-03T00:05:29.894Z,17.33
2018-02-03T00:06:03.820Z,19.00
2018-02-03T00:06:37.700Z,19.37
2018-02-03T00:07:11.597Z,17.40
2018-02-03T00:07:45.468Z,17.80
2018-02-03T00:08:19.366Z,16.50
2018-02-03T00:08:53.236Z,17.08
2018-02-03T00:09:27.193Z,18.12
2018-02-03T00:10:01.149Z,19.05
2018-02-03T00:10:35.067Z,17.25
2018-02-03T00:11:08.980Z,17.85
2018-02-03T00:11:43.043Z,18.52
2018-02-03T00:12:16.987Z,17.12
2018-02-03T00:12:50.880Z,17.25
2018-02-03T00:13:24.787Z,17.67
2018-02-03T00:13:58.884Z,18.65
2018-02-03T00:14:32.843Z,16.58
2018-02-03T00:15:06.877Z,19.40
2018-02-03T00:15:40.741Z,20.65
2018-02-03T00:16:14.646Z,19.10
2018-02-03T00:16:48.525Z,20.83
2018-02-03T00:17:22.414Z,27.77
2018-02-03T00:17:56.297Z,21.23
2018-02-03T00:18:30.246Z,22.30
2018-02-03T00:19:04.119Z,21.95
2018-02-03T00:19:38.008Z,18.50
2018-02-03T00:20:11.887Z,19.77
2018-02-03T00:20:46.122Z,19.67
2018-02-03T00:21:20.129Z,22.50
2018-02-03T00:21:54.224Z,20.75
2018-02-03T00:22:28.118Z,21.12
2018-02-03T00:23:02.206Z,20.37
2018-02-03T00:23:36.157Z,19.60
2018-02-03T00:24:10.044Z,18.00
2018-02-03T00:24:44.155Z,21.10
2018-02-03T00:25:18.028Z,20.02
2018-02-03T00:25:51.903Z,27.90
2018-02-03T00:26:26.446Z,26.15
2018-02-03T00:27:00.585Z,25.88
2018-02-03T00:27:34.679Z,22.73
2018-02-03T00:28:08.639Z,18.73
2018-02-03T00:28:42.520Z,18.92
2018-02-03T00:29:17.253Z,20.33
2018-02-03T00:29:51.416Z,19.67
2018-02-03T00:30:25.825Z,20.10
2018-02-03T00:30:59.689Z,16.95
2018-02-03T00:31:33.653Z,18.20
2018-02-03T00:32:07.770Z,18.20
2018-02-03T00:32:42.533Z,22.75
2018-02-03T00:33:16.554Z,18.98
2018-02-03T00:33:50.482Z,18.77
2018-02-03T00:34:24.370Z,18.33
2018-02-03T00:34:58.305Z,20.80
2018-02-03T00:35:32.208Z,18.30
2018-02-03T00:36:06.129Z,18.33
2018-02-03T00:36:40.034Z,18.60
2018-02-03T00:37:14.103Z,19.37
2018-02-03T00:37:47.948Z,18.80
2018-02-03T00:38:22.158Z,18.98
2018-02-03T00:38:56.100Z,19.87
2018-02-03T00:39:30.019Z,19.80
2018-02-03T00:40:03.936Z,19.08
2018-02-03T00:40:37.829Z,19.73
2018-02-03T00:41:11.830Z,18.92
2018-02-03T00:41:45.964Z,16.95
2018-02-03T00:42:19.919Z,17.37
2018-02-03T00:42:53.822Z,18.48
2018-02-03T00:43:27.738Z,18.73
2018-02-03T00:44:01.647Z,16.87
2018-02-03T00:44:35.547Z,17.98
2018-02-03T00:45:09.439Z,17.10
2018-02-03T00:45:43.443Z,16.27
2018-02-03T00:46:17.542Z,18.33
2018-02-03T00:46:51.746Z,16.83
2018-02-03T00:47:25.921Z,17.50
2018-02-03T00:48:00.014Z,16.08
2018-02-03T00:48:33.950Z,18.58
2018-02-03T00:49:07.835Z,18.02
2018-02-03T00:49:41.796Z,20.75
2018-02-03T00:50:16.370Z,22.92
2018-02-03T00:50:50.246Z,25.50
2018-02-03T00:51:24.210Z,22.35
2018-02-03T00:51:58.564Z,20.33
2018-02-03T00:52:32.461Z,18.50
2018-02-03T00:53:07.309Z,22.37
2018-02-03T00:53:41.902Z,22.92
2018-02-03T00:54:15.900Z,24.77
2018-02-03T00:54:49.860Z,23.85
2018-02-03T00:55:23.772Z,35.63
2018-02-03T00:55:57.811Z,28.08
2018-02-03T00:56:31.689Z,26.23
2018-02-03T00:57:05.583Z,22.85
2018-02-03T00:57:39.664Z,27.33
2018-02-03T00:58:13.551Z,30.20
2018-02-03T00:58:47.482Z,31.05
2018-02-03T00:59:21.554Z,25.45
2018-02-03T00:59:55.500Z,28.20
2018-02-03T01:00:29.501Z,23.52
2018-02-03T01:01:03.542Z,19.98
2018-02-03T01:01:37.550Z,22.23
2018-02-03T01:02:13.561Z,29.63
2018-02-03T01:02:47.444Z,31.90
2018-02-03T01:03:21.520Z,32.53
2018-02-03T01:03:55.407Z,26.65
2018-02-03T01:04:29.298Z,30.77
2018-02-03T01:05:03.185Z,34.67
2018-02-03T01:05:37.104Z,35.53
2018-02-03T01:06:11.017Z,25.42
2018-02-03T01:06:44.908Z,21.25
2018-02-03T01:07:18.759Z,23.12
2018-02-03T01:07:52.700Z,18.52
2018-02-03T01:08:26.681Z,15.55
2018-02-03T01:09:00.832Z,17.05
2018-02-03T01:09:34.761Z,16.10
2018-02-03T01:10:08.862Z,17.87
2018-02-03T01:10:43.205Z,16.55
2018-02-03T01:11:17.188Z,16.83
2018-02-03T01:11:51.253Z,16.60
2018-02-03T01:12:25.150Z,17.80
2018-02-03T01:12:59.267Z,17.00
2018-02-03T01:13:33.672Z,17.30
2018-02-03T01:14:07.541Z,16.00
2018-02-03T01:14:41.452Z,17.55
2018-02-03T01:15:15.355Z,16.75
2018-02-03T01:15:49.234Z,17.52
2018-02-03T01:16:23.164Z,17.70
2018-02-03T01:16:57.129Z,17.45
2018-02-03T01:17:31.017Z,16.15
2018-02-03T01:18:04.911Z,17.60
2018-02-03T01:18:38.829Z,17.87
2018-02-03T01:19:12.752Z,16.77
2018-02-03T01:19:46.781Z,18.48
2018-02-03T01:20:20.680Z,18.45
2018-02-03T01:20:54.687Z,17.37
2018-02-03T01:21:28.610Z,16.48
2018-02-03T01:22:02.661Z,17.75
2018-02-03T01:22:36.576Z,18.55
2018-02-03T01:23:10.545Z,17.70
2018-02-03T01:23:44.687Z,18.48
2018-02-03T01:24:18.625Z,18.37
2018-02-03T01:24:52.517Z,18.62
2018-02-03T01:25:26.462Z,18.87
2018-02-03T01:26:00.362Z,17.48
2018-02-03T01:26:34.254Z,17.30
2018-02-03T01:27:08.119Z,18.48
2018-02-03T01:27:42.142Z,17.45
2018-02-03T01:28:16.022Z,18.42
2018-02-03T01:28:49.959Z,17.42
2018-02-03T01:29:23.933Z,16.27
2018-02-03T01:29:57.802Z,20.00
2018-02-03T01:30:31.777Z,18.00
2018-02-03T01:31:05.974Z,17.25
2018-02-03T01:31:39.925Z,16.27
2018-02-03T01:32:13.820Z,18.35
2018-02-03T01:32:47.714Z,16.85
2018-02-03T01:33:21.709Z,18.15
2018-02-03T01:33:55.701Z,17.70
2018-02-03T01:34:29.572Z,17.27
2018-02-03T01:35:03.737Z,18.08
2018-02-03T01:35:37.644Z,17.65
2018-02-03T01:36:11.557Z,19.73
2018-02-03T01:36:45.710Z,18.08
2018-02-03T01:37:19.627Z,17.87
2018-02-03T01:37:53.582Z,18.20
2018-02-03T01:38:27.520Z,17.85
2018-02-03T01:39:01.454Z,17.75
2018-02-03T01:39:35.453Z,17.30
2018-02-03T01:40:09.354Z,18.55
2018-02-03T01:40:43.351Z,17.98
2018-02-03T01:41:17.248Z,18.33
2018-02-03T01:41:51.197Z,18.65
2018-02-03T01:42:25.117Z,19.25
2018-02-03T01:42:59.275Z,17.80
2018-02-03T01:43:33.657Z,18.62
2018-02-03T01:44:07.520Z,18.77
2018-02-03T01:44:41.437Z,19.00
2018-02-03T01:45:15.310Z,16.90
2018-02-03T01:45:49.489Z,17.30
2018-02-03T01:46:23.387Z,17.83
2018-02-03T01:46:57.362Z,17.17
2018-02-03T01:47:37.304Z,17.70
2018-02-03T01:48:11.193Z,18.37
2018-02-03T01:48:45.129Z,17.25
2018-02-03T01:49:18.996Z,17.65
2018-02-03T01:49:53.001Z,18.30
2018-02-03T01:50:26.920Z,17.98
2018-02-03T01:51:00.808Z,17.87
2018-02-03T01:51:34.814Z,19.35
2018-02-03T01:52:08.711Z,17.55
2018-02-03T01:52:42.676Z,18.40
2018-02-03T01:53:16.761Z,19.92
2018-02-03T01:53:50.700Z,17.37
2018-02-03T01:54:24.593Z,18.40
2018-02-03T01:54:58.582Z,18.55
2018-02-03T01:55:32.529Z,18.17
2018-02-03T01:56:06.444Z,17.62
2018-02-03T01:56:40.377Z,17.40
2018-02-03T01:57:14.496Z,17.70
2018-02-03T01:57:48.639Z,17.62
2018-02-03T01:58:22.564Z,18.65
2018-02-03T01:58:56.494Z,17.83
2018-02-03T01:59:30.466Z,16.90
2018-02-03T02:00:04.330Z,18.70
2018-02-03T02:00:38.348Z,18.77
2018-02-03T02:01:12.457Z,18.15
2018-02-03T02:01:46.422Z,18.37
2018-02-03T02:02:20.293Z,20.20
2018-02-03T02:02:54.189Z,17.17
2018-02-03T02:03:28.088Z,18.50
2018-02-03T02:04:02.048Z,19.12
2018-02-03T02:04:35.981Z,17.87
2018-02-03T02:05:10.154Z,19.00
2018-02-03T02:05:44.073Z,19.70
2018-02-03T02:06:18.026Z,18.50
2018-02-03T02:06:51.979Z,19.65
2018-02-03T02:07:25.872Z,19.37
2018-02-03T02:08:00.657Z,18.33
2018-02-03T02:08:34.638Z,18.35
2018-02-03T02:09:08.505Z,19.00
2018-02-03T02:09:42.424Z,18.10
2018-02-03T02:10:16.299Z,18.15
2018-02-03T02:10:50.186Z,17.67
2018-02-03T02:11:24.183Z,18.25
2018-02-03T02:11:58.077Z,18.40
2018-02-03T02:12:31.985Z,19.37
2018-02-03T02:13:05.903Z,17.75
2018-02-03T02:13:39.856Z,18.15
2018-02-03T02:14:13.762Z,19.12
2018-02-03T02:14:47.760Z,19.52
2018-02-03T02:15:21.705Z,19.00
2018-02-03T02:15:55.613Z,19.08
2018-02-03T02:16:29.521Z,19.40
2018-02-03T02:17:03.454Z,19.65
2018-02-03T02:17:37.345Z,18.60
2018-02-03T02:18:11.432Z,17.85
2018-02-03T02:18:45.345Z,19.20
2018-02-03T02:19:19.357Z,19.17
2018-02-03T02:19:53.233Z,18.35
2018-02-03T02:20:27.164Z,18.45
2018-02-03T02:21:01.089Z,19.67
2018-02-03T02:21:34.985Z,19.17
2018-02-03T02:22:09.289Z,18.90
2018-02-03T02:22:43.360Z,19.80
2018-02-03T02:23:17.267Z,18.50
2018-02-03T02:23:51.226Z,18.77
2018-02-03T02:24:25.325Z,19.80
2018-02-03T02:25:00.172Z,19.08
2018-02-03T02:25:34.117Z,18.85
2018-02-03T02:26:08.184Z,20.02
2018-02-03T02:26:42.073Z,19.90
2018-02-03T02:27:15.975Z,17.67
2018-02-03T02:27:49.979Z,20.00
2018-02-03T02:28:23.844Z,18.90
2018-02-03T02:28:57.713Z,19.02
2018-02-03T02:29:31.788Z,19.95
2018-02-03T02:30:05.672Z,19.25
2018-02-03T02:30:39.526Z,19.15
2018-02-03T02:31:13.729Z,20.10
2018-02-03T02:31:47.778Z,18.70
2018-02-03T02:32:21.673Z,18.52
2018-02-03T02:32:55.720Z,18.65
2018-02-03T02:33:29.621Z,18.48
2018-02-03T02:34:03.728Z,20.77
2018-02-03T02:34:37.711Z,19.73
2018-02-03T02:35:11.592Z,18.58
2018-02-03T02:35:45.505Z,19.45
2018-02-03T02:36:19.370Z,17.73
2018-02-03T02:36:53.259Z,20.12
2018-02-03T02:37:27.144Z,20.98
2018-02-03T02:38:01.065Z,18.33
2018-02-03T02:38:34.946Z,20.37
2018-02-03T02:39:08.826Z,19.62
2018-02-03T02:39:42.702Z,19.20
2018-02-03T02:40:16.631Z,19.10
2018-02-03T02:40:50.576Z,18.90
2018-02-03T02:41:24.518Z,19.45
2018-02-03T02:41:58.975Z,20.27
2018-02-03T02:42:33.017Z,18.20
2018-02-03T02:43:06.952Z,19.20
2018-02-03T02:43:40.809Z,20.80
2018-02-03T02:44:14.797Z,18.40
2018-02-03T02:44:48.810Z,19.95
2018-02-03T02:45:22.687Z,18.90
2018-02-03T02:45:56.741Z,20.83
2018-02-03T02:46:30.672Z,20.15
2018-02-03T02:47:04.740Z,19.08
2018-02-03T02:47:38.667Z,19.10
2018-02-03T02:48:12.556Z,19.80
2018-02-03T02:48:46.577Z,19.95
2018-02-03T02:49:20.472Z,20.08
2018-02-03T02:49:54.547Z,19.77
2018-02-03T02:50:28.464Z,18.45
2018-02-03T02:51:02.364Z,18.92
2018-02-03T02:51:36.607Z,18.98
2018-02-03T02:52:10.513Z,18.35
2018-02-03T02:52:44.530Z,18.65
2018-02-03T02:53:18.463Z,19.73
2018-02-03T02:53:53.548Z,19.20
2018-02-03T02:54:27.469Z,19.55
2018-02-03T02:55:01.372Z,20.25
2018-02-03T02:55:35.885Z,19.35
2018-02-03T02:56:09.789Z,20.20
2018-02-03T02:56:43.885Z,20.25
2018-02-03T02:57:17.762Z,19.50
2018-02-03T02:57:51.717Z,19.95
2018-02-03T02:58:25.657Z,19.10
2018-02-03T02:58:59.565Z,19.10
2018-02-03T02:59:33.436Z,20.12
2018-02-03T03:00:07.391Z,19.48
2018-02-03T03:00:41.319Z,19.20
2018-02-03T03:01:15.372Z,20.60
2018-02-03T03:01:49.286Z,20.35
2018-02-03T03:02:23.245Z,19.87
2018-02-03T03:02:57.216Z,19.90
2018-02-03T03:03:31.229Z,20.70
2018-02-03T03:04:05.107Z,17.65
2018-02-03T03:04:40.493Z,19.15
2018-02-03T03:05:14.573Z,19.65
2018-02-03T03:05:48.583Z,19.95
2018-02-03T03:06:22.582Z,19.55
2018-02-03T03:06:56.525Z,17.95
2018-02-03T03:07:30.640Z,19.77
2018-02-03T03:08:04.841Z,19.67
2018-02-03T03:08:38.719Z,19.30
2018-02-03T03:09:12.655Z,20.33
2018-02-03T03:09:46.601Z,19.23
2018-02-03T03:10:20.546Z,20.60
2018-02-03T03:10:54.559Z,19.98
2018-02-03T03:11:30.575Z,19.15
2018-02-03T03:12:04.693Z,19.58
2018-02-03T03:12:38.965Z,19.15
2018-02-03T03:13:12.872Z,18.45
2018-02-03T03:13:46.748Z,18.87
2018-02-03T03:14:20.716Z,18.95
2018-02-03T03:14:54.627Z,18.45
2018-02-03T03:15:29.324Z,18.33
2018-02-03T03:16:03.192Z,19.00
2018-02-03T03:16:37.200Z,18.67
2018-02-03T03:17:11.244Z,18.87
2018-02-03T03:17:45.235Z,19.00
2018-02-03T03:18:19.105Z,19.02
2018-02-03T03:18:53.066Z,18.40
2018-02-03T03:19:26.960Z,20.17
2018-02-03T03:20:00.848Z,19.60
2018-02-03T03:20:34.751Z,18.33
2018-02-03T03:21:08.690Z,18.60
2018-02-03T03:21:42.548Z,17.85
2018-02-03T03:22:16.449Z,20.33
2018-02-03T03:22:50.466Z,19.37
2018-02-03T03:23:24.427Z,19.67
2018-02-03T03:23:58.406Z,18.90
2018-02-03T03:24:32.595Z,19.15
2018-02-03T03:25:06.522Z,19.77
2018-02-03T03:25:40.623Z,18.80
2018-02-03T03:26:14.676Z,18.30
2018-02-03T03:26:48.693Z,18.58
2018-02-03T03:27:22.568Z,19.40
2018-02-03T03:27:56.641Z,19.08
2018-02-03T03:28:30.960Z,19.42
2018-02-03T03:29:05.089Z,19.92
2018-02-03T03:29:39.132Z,19.45
2018-02-03T03:30:13.070Z,18.23
2018-02-03T03:30:47.053Z,19.48
2018-02-03T03:31:21.046Z,18.75
2018-02-03T03:31:54.956Z,19.42
2018-02-03T03:32:28.913Z,19.25
2018-02-03T03:33:03.366Z,20.12
2018-02-03T03:33:37.263Z,18.12
2018-02-03T03:34:11.389Z,18.40
2018-02-03T03:34:45.295Z,19.83
2018-02-03T03:35:19.296Z,19.15
2018-02-03T03:35:53.204Z,18.87
2018-02-03T03:36:27.072Z,18.98
2018-02-03T03:37:01.057Z,18.65
2018-02-03T03:37:35.536Z,18.27
2018-02-03T03:38:09.491Z,17.55
2018-02-03T03:38:43.386Z,18.77
2018-02-03T03:39:17.313Z,18.08
2018-02-03T03:39:51.203Z,18.98
2018-02-03T03:40:25.093Z,18.20
2018-02-03T03:40:59.170Z,17.83
2018-02-03T03:41:33.151Z,18.42
2018-02-03T03:42:07.336Z,19.40
2018-02-03T03:42:41.203Z,18.37
2018-02-03T03:43:15.470Z,18.95
2018-02-03T03:43:49.478Z,17.25
2018-02-03T03:44:23.598Z,17.35
2018-02-03T03:44:57.544Z,19.05
2018-02-03T03:45:31.475Z,19.35
2018-02-03T03:46:06.154Z,19.33
2018-02-03T03:46:40.092Z,18.73
2018-02-03T03:47:14.079Z,18.42
2018-02-03T03:47:48.039Z,18.37
2018-02-03T03:48:22.188Z,19.02
2018-02-03T03:48:56.303Z,17.60
2018-02-03T03:49:30.547Z,17.90
2018-02-03T03:50:04.436Z,18.65
2018-02-03T03:50:38.332Z,18.55
2018-02-03T03:51:12.232Z,18.05
2018-02-03T03:51:46.121Z,17.58
2018-02-03T03:52:20.189Z,16.80
2018-02-03T03:52:54.111Z,18.90
2018-02-03T03:53:28.065Z,18.00
2018-02-03T03:54:01.968Z,18.08
2018-02-03T03:54:35.934Z,17.90
2018-02-03T03:55:10.012Z,17.52
2018-02-03T03:55:44.031Z,17.27
2018-02-03T03:56:18.048Z,17.25
2018-02-03T03:56:51.949Z,17.87
2018-02-03T03:57:25.832Z,19.00
2018-02-03T03:57:59.793Z,16.90
2018-02-03T03:58:33.736Z,18.08
2018-02-03T03:59:07.663Z,17.05
2018-02-03T03:59:41.784Z,16.10
2018-02-03T04:00:15.821Z,17.65
2018-02-03T04:00:49.704Z,17.92
2018-02-03T04:01:23.611Z,16.95
2018-02-03T04:01:57.578Z,17.55
2018-02-03T04:02:31.434Z,15.20
2018-02-03T04:03:05.340Z,15.70
2018-02-03T04:03:39.227Z,16.42
2018-02-03T04:04:13.169Z,16.77
2018-02-03T04:04:47.133Z,17.33
2018-02-03T04:05:21.008Z,16.85
2018-02-03T04:05:54.952Z,16.00
2018-02-03T04:06:28.829Z,16.10
2018-02-03T04:07:02.693Z,16.33
2018-02-03T04:07:36.943Z,16.05
2018-02-03T04:08:10.813Z,16.52
2018-02-03T04:08:44.741Z,16.90
2018-02-03T04:09:18.635Z,15.05
2018-02-03T04:09:52.593Z,15.85
2018-02-03T04:10:26.526Z,15.57
2018-02-03T04:11:00.587Z,14.60
2018-02-03T04:11:34.621Z,15.77
2018-02-03T04:12:08.497Z,14.40
2018-02-03T04:12:42.411Z,15.25
2018-02-03T04:13:16.404Z,15.23
2018-02-03T04:13:50.302Z,14.57
2018-02-03T04:14:24.311Z,13.68
2018-02-03T04:14:58.188Z,14.98
2018-02-03T04:15:32.064Z,15.95
2018-02-03T04:16:05.940Z,16.60
2018-02-03T04:16:39.869Z,14.93
2018-02-03T04:17:13.770Z,14.70
2018-02-03T04:17:47.843Z,13.73
2018-02-03T04:18:21.932Z,15.32
2018-02-03T04:18:55.824Z,15.40
2018-02-03T04:19:29.820Z,14.57
2018-02-03T04:20:03.725Z,14.30
2018-02-03T04:20:37.611Z,14.70
2018-02-03T04:21:11.551Z,15.00
2018-02-03T04:21:45.476Z,14.80
2018-02-03T04:22:19.375Z,14.73
2018-02-03T04:22:53.233Z,14.90
2018-02-03T04:23:27.132Z,16.05
2018-02-03T04:24:01.272Z,15.00
2018-02-03T04:24:35.203Z,17.17
2018-02-03T04:25:09.154Z,16.10
2018-02-03T04:25:43.060Z,15.48
2018-02-03T04:26:17.014Z,17.25
2018-02-03T04:26:50.908Z,15.77
2018-02-03T04:27:24.824Z,14.55
2018-02-03T04:27:58.701Z,16.10
2018-02-03T04:28:33.072Z,16.42
2018-02-03T04:29:06.953Z,16.20
2018-02-03T04:29:40.890Z,14.20
2018-02-03T04:30:14.794Z,16.17
2018-02-03T04:30:48.839Z,15.50
2018-02-03T04:31:22.906Z,15.85
2018-02-03T04:31:56.838Z,15.65
2018-02-03T04:32:30.744Z,16.02
2018-02-03T04:33:05.032Z,16.75
2018-02-03T04:33:38.976Z,16.48
2018-02-03T04:34:12.873Z,16.27
2018-02-03T04:34:46.788Z,15.38
2018-02-03T04:35:20.675Z,14.80
2018-02-03T04:35:54.540Z,15.38
2018-02-03T04:36:28.416Z,14.95
2018-02-03T04:37:42.797Z,14.63
2018-02-03T04:38:16.675Z,15.07
2018-02-03T04:38:50.544Z,14.75
2018-02-03T04:39:24.441Z,14.65
2018-02-03T04:39:58.840Z,14.65
2018-02-03T04:40:32.745Z,14.40
2018-02-03T04:41:07.499Z,15.60
2018-02-03T04:41:41.383Z,14.98
2018-02-03T04:42:15.238Z,14.45
2018-02-03T04:42:49.173Z,13.48
2018-02-03T04:43:23.076Z,13.60
2018-02-03T04:43:57.235Z,13.75
2018-02-03T04:44:31.488Z,13.57
2018-02-03T04:45:05.389Z,13.38
2018-02-03T04:45:39.577Z,13.60
2018-02-03T04:46:13.473Z,15.55
2018-02-03T04:46:47.471Z,13.38
2018-02-03T04:47:21.344Z,13.35
2018-02-03T04:47:55.260Z,14.30
2018-02-03T04:48:29.247Z,13.10
2018-02-03T04:49:03.384Z,13.85
2018-02-03T04:49:37.253Z,13.85
2018-02-03T04:50:11.143Z,12.25
2018-02-03T04:50:45.023Z,12.90
2018-02-03T04:51:18.943Z,12.63
2018-02-03T04:51:52.834Z,12.77
2018-02-03T04:52:26.790Z,12.05
2018-02-03T04:53:00.722Z,11.98
2018-02-03T04:53:34.615Z,12.30
2018-02-03T04:54:08.505Z,12.52
2018-02-03T04:54:42.399Z,12.95
2018-02-03T04:55:16.507Z,12.88
2018-02-03T04:55:50.389Z,11.73
2018-02-03T04:56:24.320Z,13.85
2018-02-03T04:56:58.241Z,14.27
2018-02-03T04:57:32.138Z,12.95
2018-02-03T04:58:06.041Z,13.20
2018-02-03T04:58:40.128Z,13.10
2018-02-03T04:59:14.070Z,12.32
2018-02-03T04:59:47.994Z,12.65
2018-02-03T05:00:21.889Z,12.80
2018-02-03T05:00:55.942Z,12.63
2018-02-03T05:01:29.969Z,12.15
2018-02-03T05:02:04.172Z,12.35
2018-02-03T05:02:38.257Z,13.62
2018-02-03T05:03:12.240Z,11.75
2018-02-03T05:03:46.257Z,12.82
2018-02-03T05:04:20.156Z,16.02
2018-02-03T05:04:54.206Z,13.85
2018-02-03T05:05:28.254Z,13.02
2018-02-03T05:06:02.121Z,13.93
2018-02-03T05:06:36.327Z,12.23
2018-02-03T05:07:10.245Z,13.52
2018-02-03T05:07:44.116Z,13.60
2018-02-03T05:08:18.111Z,13.13
2018-02-03T05:08:51.958Z,12.50
2018-02-03T05:09:25.880Z,13.43
2018-02-03T05:09:59.840Z,13.15
2018-02-03T05:10:33.720Z,12.93
2018-02-03T05:11:07.661Z,13.48
2018-02-03T05:11:41.579Z,13.85
2018-02-03T05:12:15.532Z,13.55
2018-02-03T05:12:49.457Z,12.93
2018-02-03T05:13:23.474Z,14.35
2018-02-03T05:13:57.905Z,12.52
2018-02-03T05:14:31.836Z,12.52
2018-02-03T05:15:05.793Z,12.10
2018-02-03T05:15:39.729Z,14.40
2018-02-03T05:16:13.905Z,15.75
2018-02-03T05:16:47.759Z,16.87
2018-02-03T05:17:21.658Z,14.93
2018-02-03T05:17:55.570Z,16.27
2018-02-03T05:18:29.472Z,17.48
2018-02-03T05:19:03.343Z,17.37
2018-02-03T05:19:37.264Z,18.60
2018-02-03T05:20:11.180Z,27.25
2018-02-03T05:20:45.134Z,24.65
2018-02-03T05:21:19.166Z,27.15
2018-02-03T05:21:53.043Z,25.85
2018-02-03T05:22:26.965Z,24.33
2018-02-03T05:23:00.845Z,17.50
2018-02-03T05:23:34.729Z,18.08
2018-02-03T05:24:08.662Z,16.15
2018-02-03T05:24:42.544Z,15.38
2018-02-03T05:25:16.508Z,15.15
2018-02-03T05:25:50.515Z,14.15
2018-02-03T05:26:24.432Z,14.93
2018-02-03T05:26:58.480Z,15.15
2018-02-03T05:27:32.454Z,14.48
2018-02-03T05:28:06.321Z,14.38
2018-02-03T05:28:40.199Z,14.35
2018-02-03T05:29:14.133Z,14.80
2018-02-03T05:29:48.886Z,13.80
2018-02-03T05:30:22.935Z,13.75
2018-02-03T05:30:56.937Z,15.30
2018-02-03T05:31:30.937Z,14.75
2018-02-03T05:32:04.850Z,15.30
2018-02-03T05:32:38.881Z,14.43
2018-02-03T05:33:12.849Z,13.27
2018-02-03T05:33:46.787Z,13.13
2018-02-03T05:34:20.668Z,13.60
2018-02-03T05:34:54.768Z,11.80
2018-02-03T05:35:28.641Z,13.27
2018-02-03T05:36:02.769Z,12.60
2018-02-03T05:36:36.636Z,12.43
2018-02-03T05:37:10.816Z,12.65
2018-02-03T05:37:44.730Z,12.98
2018-02-03T05:38:18.616Z,13.60
2018-02-03T05:38:52.590Z,12.18
2018-02-03T05:39:26.517Z,11.80
2018-02-03T05:40:00.541Z,12.13
2018-02-03T05:40:34.424Z,13.10
2018-02-03T05:41:08.447Z,12.35
2018-02-03T05:41:42.540Z,12.55
2018-02-03T05:42:16.469Z,11.88
2018-02-03T05:42:50.344Z,14.07
2018-02-03T05:43:24.429Z,11.75
2018-02-03T05:43:58.382Z,10.85
2018-02-03T05:44:36.958Z,11.25
2018-02-03T05:45:11.639Z,11.93
2018-02-03T05:45:45.706Z,11.32
2018-02-03T05:46:19.567Z,11.52
2018-02-03T05:46:53.496Z,12.25
2018-02-03T05:47:27.431Z,11.68
2018-02-03T05:48:01.308Z,11.85
2018-02-03T05:48:35.395Z,11.63
2018-02-03T05:49:09.270Z,12.30
2018-02-03T05:49:43.481Z,11.93
2018-02-03T05:50:17.376Z,12.05
2018-02-03T05:50:51.425Z,12.80
2018-02-03T05:51:25.320Z,11.52
2018-02-03T05:51:59.414Z,11.20
2018-02-03T05:52:33.302Z,11.18
2018-02-03T05:53:07.188Z,11.48
2018-02-03T05:53:42.176Z,10.82
2018-02-03T05:54:16.429Z,10.23
2018-02-03T05:54:50.296Z,10.50
2018-02-03T05:55:24.232Z,11.60
2018-02-03T05:55:58.498Z,10.93
2018-02-03T05:56:32.421Z,10.48
2018-02-03T05:57:06.350Z,10.75
2018-02-03T05:57:40.260Z,9.93
2018-02-03T05:58:14.229Z,11.65
2018-02-03T05:58:48.182Z,10.75
2018-02-03T05:59:22.077Z,11.43
2018-02-03T05:59:56.274Z,11.35
2018-02-03T06:00:30.186Z,10.10
2018-02-03T06:01:04.247Z,11.18
2018-02-03T06:01:38.140Z,10.10
2018-02-03T06:02:12.230Z,10.43
2018-02-03T06:02:46.221Z,11.23
2018-02-03T06:03:20.218Z,10.30
2018-02-03T06:03:54.141Z,10.90
2018-02-03T06:04:28.129Z,10.88
2018-02-03T06:05:02.004Z,10.00
2018-02-03T06:05:35.912Z,10.55
2018-02-03T06:06:09.877Z,11.68
2018-02-03T06:06:43.913Z,10.35
2018-02-03T06:07:17.810Z,10.00
2018-02-03T06:07:52.097Z,10.82
2018-02-03T06:08:26.139Z,11.00
2018-02-03T06:09:00.208Z,10.02
2018-02-03T06:09:34.122Z,11.23
2018-02-03T06:10:08.076Z,11.25
2018-02-03T06:10:42.013Z,9.52
2018-02-03T06:11:16.032Z,11.12
2018-02-03T06:11:50.183Z,10.65
2018-02-03T06:12:24.054Z,12.18
2018-02-03T06:12:57.985Z,10.55
2018-02-03T06:13:31.868Z,11.45
2018-02-03T06:14:05.824Z,11.02
2018-02-03T06:14:39.744Z,12.05
2018-02-03T06:15:13.613Z,11.80
2018-02-03T06:15:47.562Z,10.90
2018-02-03T06:16:21.457Z,12.80
2018-02-03T06:16:55.338Z,11.50
2018-02-03T06:17:30.533Z,10.88
2018-02-03T06:18:04.510Z,10.73
2018-02-03T06:18:38.525Z,10.90
2018-02-03T06:19:12.455Z,11.43
2018-02-03T06:19:46.525Z,11.73
2018-02-03T06:20:20.470Z,11.07
2018-02-03T06:20:54.405Z,12.55
2018-02-03T06:21:28.337Z,10.77
2018-02-03T06:22:02.253Z,10.57
2018-02-03T06:22:36.349Z,12.50
2018-02-03T06:23:10.307Z,11.32
2018-02-03T06:23:44.340Z,11.20
2018-02-03T06:24:18.237Z,12.15
2018-02-03T06:24:52.166Z,11.98
2018-02-03T06:25:26.065Z,10.95
2018-02-03T06:26:00.016Z,12.15
2018-02-03T06:26:34.001Z,12.80
2018-02-03T06:27:08.139Z,12.52
2018-02-03T06:27:42.292Z,10.07
2018-02-03T06:28:16.299Z,10.63
2018-02-03T06:28:50.165Z,11.30
2018-02-03T06:29:24.095Z,12.15
2018-02-03T06:29:58.141Z,10.13
2018-02-03T06:30:32.137Z,11.05
2018-02-03T06:31:06.077Z,11.18
2018-02-03T06:31:40.311Z,9.30
2018-02-03T06:32:14.245Z,9.00
2018-02-03T06:32:48.223Z,10.65
2018-02-03T06:33:22.277Z,10.65
2018-02-03T06:33:58.018Z,10.07
2018-02-03T06:34:31.879Z,10.80
2018-02-03T06:35:06.429Z,10.68
2018-02-03T06:35:40.519Z,11.40
2018-02-03T06:36:14.476Z,10.45
2018-02-03T06:36:48.421Z,9.73
2018-02-03T06:37:22.381Z,8.95
2018-02-03T06:37:57.549Z,9.32
2018-02-03T06:38:31.647Z,10.80
2018-02-03T06:39:05.789Z,10.77
2018-02-03T06:39:39.724Z,9.75
2018-02-03T06:40:13.585Z,10.27
2018-02-03T06:40:48.556Z,10.30
2018-02-03T06:41:22.497Z,9.60
2018-02-03T06:41:56.378Z,10.70
2018-02-03T06:42:30.340Z,10.40
2018-02-03T06:43:47.453Z,9.13
2018-02-03T06:44:21.380Z,9.57
2018-02-03T06:44:55.384Z,9.60
2018-02-03T06:45:29.280Z,9.65
2018-02-03T06:46:03.354Z,10.05
2018-02-03T06:46:37.584Z,9.38
2018-02-03T06:47:11.584Z,9.15
2018-02-03T06:47:45.537Z,9.02
2018-02-03T06:48:19.462Z,8.90
2018-02-03T06:48:53.367Z,8.25
2018-02-03T06:49:27.560Z,9.38
2018-02-03T06:50:01.937Z,8.68
2018-02-03T06:50:35.972Z,8.80
2018-02-03T06:51:09.981Z,9.40
2018-02-03T06:51:43.920Z,9.23
2018-02-03T06:52:18.977Z,8.25
2018-02-03T06:52:53.047Z,8.63
2018-02-03T06:53:27.051Z,8.63
2018-02-03T06:54:00.975Z,7.87
2018-02-03T06:54:35.705Z,7.50
2018-02-03T06:55:09.672Z,7.50
2018-02-03T06:55:43.581Z,7.10
2018-02-03T06:56:17.450Z,6.87
2018-02-03T06:56:51.321Z,7.55
2018-02-03T06:57:25.316Z,6.72
2018-02-03T06:57:59.236Z,6.62
2018-02-03T06:58:33.170Z,7.57
2018-02-03T06:59:07.213Z,6.97
2018-02-03T06:59:42.266Z,7.75
2018-02-03T07:00:16.161Z,6.70
2018-02-03T07:00:50.361Z,7.93
2018-02-03T07:01:24.276Z,6.80
2018-02-03T07:01:58.195Z,6.65
2018-02-03T07:02:32.127Z,6.72
2018-02-03T07:03:06.312Z,6.18
2018-02-03T07:03:40.473Z,6.50
2018-02-03T07:04:14.356Z,6.28
2018-02-03T07:04:48.453Z,5.80
2018-02-03T07:05:22.700Z,6.70
2018-02-03T07:05:56.642Z,6.53
2018-02-03T07:06:30.620Z,5.70
2018-02-03T07:07:04.637Z,6.68
2018-02-03T07:07:38.554Z,5.78
2018-02-03T07:08:12.773Z,7.12
2018-02-03T07:08:48.392Z,6.57
2018-02-03T07:09:22.359Z,6.00
2018-02-03T07:09:56.344Z,6.05
2018-02-03T07:10:30.260Z,6.85
2018-02-03T07:11:04.404Z,6.60
2018-02-03T07:11:39.585Z,7.75
2018-02-03T07:12:13.581Z,7.68
2018-02-03T07:12:47.555Z,6.43
2018-02-03T07:13:21.754Z,6.07
2018-02-03T07:13:55.777Z,8.68
2018-02-03T07:14:30.102Z,6.82
2018-02-03T07:15:04.143Z,8.90
2018-02-03T07:15:38.452Z,8.57
2018-02-03T07:16:12.507Z,9.15
2018-02-03T07:16:46.810Z,8.82
2018-02-03T07:17:20.909Z,10.50
2018-02-03T07:17:55.128Z,12.82
2018-02-03T07:18:29.240Z,12.80
2018-02-03T07:19:03.328Z,10.48
2018-02-03T07:19:37.193Z,8.35
2018-02-03T07:20:11.147Z,6.30
2018-02-03T07:20:45.013Z,5.55